Time;durP1;ratioP1;P1;durP2;ratioP2;P2;SDS_P1;SDS_P2;PMS_P1;PMS_P2;Temp;Humidity;BMP_temperature;BMP_pressure;BME280_temperature;BME280_humidity;BME280_pressure;Samples;Min_cycle;Max_cycle;Signal;HPM_P1;HPM_P2
2021/08/09 00:00:04;;;;;;;5.93;2.00;;;13.60;99.90;;;;;;3541831;40;20038;-61
2021/08/09 00:02:35;;;;;;;3.38;1.85;;;13.70;99.90;;;;;;3542791;40;20045;-69
2021/08/09 00:05:00;;;;;;;3.60;1.90;;;13.70;99.90;;;;;;3542903;40;20184;-69
2021/08/09 00:07:26;;;;;;;5.22;2.00;;;13.60;99.90;;;;;;3543088;40;20049;-68
2021/08/09 00:09:53;;;;;;;4.95;2.38;;;13.60;99.90;;;;;;3542713;40;20041;-68
2021/08/09 00:12:19;;;;;;;6.07;2.42;;;13.60;99.90;;;;;;3542135;40;20140;-69
2021/08/09 00:14:44;;;;;;;4.93;2.00;;;13.50;99.90;;;;;;3542663;40;20368;-69
2021/08/09 00:17:10;;;;;;;8.15;2.30;;;13.40;99.90;;;;;;3541943;40;20206;-69
2021/08/09 00:19:35;;;;;;;4.32;2.30;;;13.40;99.90;;;;;;3542456;40;20074;-69
2021/08/09 00:22:01;;;;;;;3.35;2.25;;;13.50;99.90;;;;;;3542172;40;20046;-69
2021/08/09 00:24:28;;;;;;;3.67;2.10;;;13.30;99.90;;;;;;3542060;40;20042;-68
2021/08/09 00:26:53;;;;;;;4.05;2.33;;;13.30;99.90;;;;;;3542507;40;20096;-68
2021/08/09 00:29:19;;;;;;;6.60;2.22;;;13.40;99.90;;;;;;3548370;40;20086;-69
2021/08/09 00:31:44;;;;;;;5.47;2.00;;;13.30;99.90;;;;;;3548818;40;20041;-68
2021/08/09 00:34:10;;;;;;;6.55;2.63;;;13.30;99.90;;;;;;3549408;40;20054;-69
2021/08/09 00:36:35;;;;;;;11.88;2.78;;;13.10;99.90;;;;;;3542039;40;20420;-69
2021/08/09 00:39:01;;;;;;;4.63;2.10;;;13.20;99.90;;;;;;3548950;40;20042;-69
2021/08/09 00:41:26;;;;;;;5.90;2.45;;;13.20;99.90;;;;;;3548483;40;20074;-69
2021/08/09 00:43:52;;;;;;;5.20;2.03;;;13.20;99.90;;;;;;3547495;40;20351;-69
2021/08/09 00:46:18;;;;;;;5.47;1.77;;;13.40;99.90;;;;;;3549006;40;20030;-69
2021/08/09 00:48:48;;;;;;;4.00;2.05;;;13.10;99.90;;;;;;3541396;40;20094;-69
2021/08/09 00:51:14;;;;;;;5.35;2.30;;;13.10;99.90;;;;;;3540495;40;20607;-68
2021/08/09 00:53:44;;;;;;;4.57;2.10;;;13.10;99.90;;;;;;3540227;40;20300;-69
2021/08/09 00:56:10;;;;;;;4.43;2.00;;;13.10;99.90;;;;;;3540979;40;20049;-69
2021/08/09 00:58:36;;;;;;;3.95;2.20;;;13.10;99.90;;;;;;3540577;40;20062;-69
2021/08/09 01:01:03;;;;;;;3.85;2.00;;;13.00;99.90;;;;;;3548335;40;20061;-69
2021/08/09 01:03:28;;;;;;;3.33;2.08;;;13.00;99.90;;;;;;3549124;40;20600;-68
2021/08/09 01:05:54;;;;;;;5.93;2.30;;;12.90;99.90;;;;;;3541090;40;20301;-69
2021/08/09 01:08:20;;;;;;;6.70;2.13;;;13.00;99.90;;;;;;3541553;40;20044;-69
2021/08/09 01:10:52;;;;;;;3.38;2.20;;;12.90;99.90;;;;;;3540003;40;20331;-68
2021/08/09 01:13:29;;;;;;;5.00;2.10;;;12.90;99.90;;;;;;3539419;40;20042;-69
2021/08/09 01:15:55;;;;;;;4.70;2.33;;;12.90;99.90;;;;;;3548930;40;20045;-69
2021/08/09 01:18:20;;;;;;;5.78;2.35;;;12.90;99.90;;;;;;3548837;40;20826;-68
2021/08/09 01:20:47;;;;;;;4.72;2.40;;;12.90;99.90;;;;;;3549037;40;20050;-69
2021/08/09 01:23:14;;;;;;;3.90;2.08;;;13.00;99.90;;;;;;3531693;40;20352;-69
2021/08/09 01:25:39;;;;;;;3.25;2.00;;;13.00;99.90;;;;;;3540037;40;20038;-69
2021/08/09 01:28:08;;;;;;;2.97;2.30;;;13.20;99.90;;;;;;3540857;40;20031;-69
2021/08/09 01:30:34;;;;;;;4.78;2.13;;;13.00;99.90;;;;;;3548174;40;20522;-69
2021/08/09 01:32:59;;;;;;;3.97;2.20;;;12.90;99.90;;;;;;3541775;40;20065;-69
2021/08/09 01:35:25;;;;;;;7.78;2.20;;;12.90;99.90;;;;;;3541733;40;20653;-69
2021/08/09 01:37:52;;;;;;;2.88;2.25;;;12.90;99.90;;;;;;3548700;40;20049;-70
2021/08/09 01:40:18;;;;;;;4.90;2.22;;;12.80;99.90;;;;;;3548775;40;20744;-69
2021/08/09 01:42:44;;;;;;;3.60;1.98;;;12.80;99.90;;;;;;3540095;40;20075;-68
2021/08/09 01:45:10;;;;;;;4.97;2.20;;;12.80;99.90;;;;;;3540527;40;20054;-69
2021/08/09 01:47:36;;;;;;;5.07;2.00;;;12.70;99.90;;;;;;3540265;40;20038;-69
2021/08/09 01:50:02;;;;;;;4.80;2.35;;;12.10;99.90;;;;;;3540585;40;20144;-69
2021/08/09 01:52:27;;;;;;;11.70;1.90;;;12.70;99.90;;;;;;3548492;40;20030;-69
2021/08/09 01:54:53;;;;;;;3.30;2.03;;;12.10;99.90;;;;;;3548785;40;20046;-69
2021/08/09 01:57:20;;;;;;;4.47;2.20;;;12.60;99.90;;;;;;3540593;40;20030;-69
2021/08/09 01:59:48;;;;;;;5.43;2.17;;;12.60;99.90;;;;;;3539755;40;20059;-69
2021/08/09 02:02:14;;;;;;;4.47;2.15;;;12.90;99.90;;;;;;3548802;40;20045;-68
2021/08/09 02:04:39;;;;;;;4.55;2.25;;;12.50;99.90;;;;;;3548967;40;20046;-69
2021/08/09 02:07:05;;;;;;;3.50;2.25;;;12.60;99.90;;;;;;3548138;40;20611;-69
2021/08/09 02:09:31;;;;;;;4.15;2.22;;;12.60;99.90;;;;;;3548948;40;20023;-69
2021/08/09 02:11:57;;;;;;;4.40;2.10;;;12.70;99.90;;;;;;3540053;40;20047;-69
2021/08/09 02:14:24;;;;;;;4.00;2.10;;;12.80;99.90;;;;;;3540683;40;20159;-69
2021/08/09 02:16:51;;;;;;;5.07;2.20;;;12.70;99.90;;;;;;3540773;40;20050;-69
2021/08/09 02:19:17;;;;;;;3.85;2.17;;;12.70;99.90;;;;;;3540230;40;20038;-69
2021/08/09 02:21:43;;;;;;;4.90;2.03;;;12.70;99.90;;;;;;3548542;40;20661;-70
2021/08/09 02:24:08;;;;;;;9.18;2.47;;;12.80;99.90;;;;;;3540832;40;20046;-70
2021/08/09 02:26:37;;;;;;;4.00;2.20;;;12.70;99.90;;;;;;3531453;40;20061;-69
2021/08/09 02:29:07;;;;;;;5.53;2.30;;;12.70;99.90;;;;;;3539830;40;20069;-69
2021/08/09 02:31:33;;;;;;;7.35;2.13;;;12.80;99.90;;;;;;3538635;40;20302;-70
2021/08/09 02:33:58;;;;;;;3.15;2.00;;;12.90;99.90;;;;;;3539262;40;20061;-69
2021/08/09 02:36:24;;;;;;;7.60;2.50;;;12.80;99.90;;;;;;3539669;40;20054;-69
2021/08/09 02:38:50;;;;;;;5.38;2.42;;;12.80;99.90;;;;;;3547528;40;20116;-68
2021/08/09 02:41:16;;;;;;;5.30;1.95;;;12.90;99.90;;;;;;3533103;40;20046;-69
2021/08/09 02:43:42;;;;;;;3.88;2.10;;;12.90;99.90;;;;;;3539986;40;20045;-69
2021/08/09 02:46:07;;;;;;;5.57;2.63;;;12.90;99.90;;;;;;3539880;40;20038;-69
2021/08/09 02:48:35;;;;;;;5.43;2.10;;;12.90;99.90;;;;;;3535865;40;20670;-69
2021/08/09 02:51:01;;;;;;;5.82;2.33;;;12.80;99.90;;;;;;3539869;40;20027;-69
2021/08/09 02:53:26;;;;;;;6.07;2.45;;;12.80;99.90;;;;;;3548270;40;20043;-69
2021/08/09 02:55:52;;;;;;;6.00;2.90;;;12.70;99.90;;;;;;3548445;40;20078;-69
2021/08/09 02:58:18;;;;;;;3.30;2.45;;;12.70;99.90;;;;;;3548499;40;20515;-68
2021/08/09 03:00:43;;;;;;;6.30;2.58;;;12.60;99.90;;;;;;3540860;40;20046;-70
2021/08/09 03:03:10;;;;;;;3.65;2.83;;;12.50;99.90;;;;;;3548078;40;20046;-69
2021/08/09 03:05:36;;;;;;;4.20;2.38;;;12.60;99.90;;;;;;3548257;40;20039;-70
2021/08/09 03:08:01;;;;;;;3.03;2.20;;;12.40;99.90;;;;;;3547625;40;20124;-69
2021/08/09 03:10:27;;;;;;;5.40;2.33;;;12.60;99.90;;;;;;3548424;40;20038;-69
2021/08/09 03:12:53;;;;;;;5.38;2.60;;;12.70;99.90;;;;;;3540704;40;20318;-69
2021/08/09 03:15:18;;;;;;;4.88;2.55;;;12.70;99.90;;;;;;3548485;40;20050;-69
2021/08/09 03:17:47;;;;;;;6.03;2.30;;;12.70;99.90;;;;;;3548440;40;20056;-69
2021/08/09 03:20:13;;;;;;;8.45;2.88;;;12.70;99.90;;;;;;3540797;40;20042;-69
2021/08/09 03:22:38;;;;;;;6.88;2.58;;;12.60;99.90;;;;;;3547903;40;20168;-69
2021/08/09 03:25:04;;;;;;;3.42;2.35;;;12.70;99.90;;;;;;3547903;40;20042;-69
2021/08/09 03:27:29;;;;;;;9.95;3.00;;;12.70;99.90;;;;;;3541190;40;20053;-69
2021/08/09 03:29:55;;;;;;;4.00;2.88;;;12.60;99.90;;;;;;3548084;40;20184;-69
2021/08/09 03:32:20;;;;;;;2.58;2.35;;;12.70;99.90;;;;;;3547653;40;20042;-68
2021/08/09 03:34:46;;;;;;;8.57;2.33;;;12.70;99.90;;;;;;3541183;40;20414;-69
2021/08/09 03:37:12;;;;;;;4.25;2.60;;;12.70;99.90;;;;;;3539241;40;20452;-69
2021/08/09 03:39:37;;;;;;;8.45;2.50;;;12.70;99.90;;;;;;3546571;40;20376;-69
2021/08/09 03:42:03;;;;;;;3.85;2.80;;;12.80;99.90;;;;;;3541190;40;20215;-69
2021/08/09 03:44:29;;;;;;;7.75;2.70;;;12.80;99.90;;;;;;3540664;40;20169;-68
2021/08/09 03:46:54;;;;;;;8.00;3.00;;;12.80;99.90;;;;;;3540294;40;20387;-68
2021/08/09 03:49:19;;;;;;;4.82;2.80;;;12.80;99.90;;;;;;3540394;40;20034;-69
2021/08/09 03:51:45;;;;;;;9.65;2.53;;;12.80;99.90;;;;;;3549032;40;20694;-69
2021/08/09 03:54:10;;;;;;;6.20;2.72;;;12.80;99.90;;;;;;3542504;40;20050;-69
2021/08/09 03:56:37;;;;;;;5.30;3.13;;;12.80;99.90;;;;;;3539061;40;20141;-69
2021/08/09 03:59:02;;;;;;;5.80;2.65;;;12.80;99.90;;;;;;3541163;40;20771;-69
2021/08/09 04:01:28;;;;;;;5.63;2.58;;;12.80;99.90;;;;;;3540337;40;20037;-69
2021/08/09 04:03:53;;;;;;;4.15;2.50;;;12.80;99.90;;;;;;3541018;40;20041;-69
2021/08/09 04:06:20;;;;;;;4.68;3.03;;;12.70;99.90;;;;;;3532995;40;20042;-69
2021/08/09 04:08:48;;;;;;;6.47;3.03;;;12.70;99.90;;;;;;3548946;40;20045;-69
2021/08/09 04:11:14;;;;;;;8.57;3.05;;;12.70;99.90;;;;;;3541161;40;20038;-70
2021/08/09 04:13:41;;;;;;;4.32;2.40;;;12.80;99.90;;;;;;3548640;40;20064;-69
2021/08/09 04:16:07;;;;;;;5.03;2.65;;;12.80;99.90;;;;;;3549519;40;20063;-69
2021/08/09 04:18:33;;;;;;;9.93;2.47;;;12.80;99.90;;;;;;3549646;40;20030;-69
2021/08/09 04:20:59;;;;;;;7.82;2.67;;;12.90;99.90;;;;;;3535248;40;20059;-69
2021/08/09 04:23:24;;;;;;;5.50;2.33;;;12.80;99.90;;;;;;3542184;40;20039;-70
2021/08/09 04:25:50;;;;;;;5.82;2.45;;;12.90;99.90;;;;;;3542178;40;20296;-69
2021/08/09 04:28:15;;;;;;;4.18;2.28;;;12.90;99.90;;;;;;3542518;40;20125;-69
2021/08/09 04:30:41;;;;;;;6.75;2.30;;;13.00;99.90;;;;;;3550075;40;20356;-69
2021/08/09 04:33:06;;;;;;;7.28;2.63;;;12.90;99.90;;;;;;3535719;40;20108;-69
2021/08/09 04:35:33;;;;;;;4.32;2.17;;;13.00;99.90;;;;;;3540535;40;20084;-69
2021/08/09 04:37:59;;;;;;;4.70;2.28;;;13.10;99.90;;;;;;3542090;40;20405;-68
2021/08/09 04:40:26;;;;;;;6.63;2.42;;;13.20;99.90;;;;;;3549403;40;20718;-70
2021/08/09 04:42:51;;;;;;;4.38;2.30;;;13.10;99.90;;;;;;3534639;40;20045;-70
2021/08/09 04:45:20;;;;;;;3.70;2.00;;;13.10;99.90;;;;;;3538367;40;20050;-70
2021/08/09 04:47:46;;;;;;;3.30;2.40;;;13.10;99.90;;;;;;3541129;40;20047;-70
2021/08/09 04:50:12;;;;;;;5.53;2.47;;;13.10;99.90;;;;;;3540377;40;20072;-70
2021/08/09 04:52:38;;;;;;;7.35;2.30;;;13.20;99.90;;;;;;3540751;40;20023;-69
2021/08/09 04:55:04;;;;;;;4.68;2.28;;;13.30;99.90;;;;;;3540860;40;20524;-70
2021/08/09 04:57:29;;;;;;;4.60;2.45;;;13.30;99.90;;;;;;3541481;40;20023;-70
2021/08/09 04:59:55;;;;;;;7.22;2.60;;;13.40;99.90;;;;;;3548786;40;20050;-69
2021/08/09 05:02:22;;;;;;;4.50;2.35;;;13.50;99.90;;;;;;3533380;40;20039;-70
2021/08/09 05:04:47;;;;;;;3.25;2.10;;;13.50;99.90;;;;;;3540604;40;20042;-69
2021/08/09 05:07:14;;;;;;;3.88;2.10;;;13.60;99.90;;;;;;3538363;40;20029;-69
2021/08/09 05:09:40;;;;;;;7.13;2.30;;;13.70;99.90;;;;;;3540220;40;20039;-70
2021/08/09 05:12:06;;;;;;;5.60;2.10;;;13.70;99.90;;;;;;3540481;40;20030;-70
2021/08/09 05:14:35;;;;;;;3.83;1.85;;;13.80;99.90;;;;;;3540670;40;20034;-69
2021/08/09 05:17:00;;;;;;;6.13;2.08;;;13.80;99.90;;;;;;3540638;40;20041;-69
2021/08/09 05:19:26;;;;;;;4.65;2.10;;;14.00;99.90;;;;;;3542088;40;20696;-70
2021/08/09 05:21:51;;;;;;;6.35;2.30;;;14.10;99.90;;;;;;3548673;40;20054;-70
2021/08/09 05:24:17;;;;;;;7.75;2.10;;;14.20;99.90;;;;;;3540648;40;20100;-70
2021/08/09 05:26:43;;;;;;;4.82;1.75;;;14.40;99.90;;;;;;3549135;40;20030;-69
2021/08/09 05:29:08;;;;;;;2.42;1.98;;;14.50;99.90;;;;;;3539706;40;20432;-70
2021/08/09 05:31:34;;;;;;;3.60;1.75;;;14.50;99.90;;;;;;3541511;40;20026;-69
2021/08/09 05:33:59;;;;;;;4.20;1.98;;;14.70;99.90;;;;;;3540788;40;20086;-69
2021/08/09 05:36:25;;;;;;;5.50;1.60;;;14.70;99.90;;;;;;3541291;40;20427;-69
2021/08/09 05:38:50;;;;;;;2.95;1.63;;;14.80;99.90;;;;;;3541277;40;20144;-69
2021/08/09 05:41:17;;;;;;;6.18;2.67;;;14.80;99.90;;;;;;3540039;40;20049;-69
2021/08/09 05:43:42;;;;;;;8.70;2.40;;;14.80;99.90;;;;;;3548001;40;20431;-69
2021/08/09 05:46:08;;;;;;;3.10;1.70;;;14.90;99.90;;;;;;3548163;40;20034;-70
2021/08/09 05:48:35;;;;;;;4.82;1.80;;;15.10;99.90;;;;;;3539559;40;20096;-69
2021/08/09 05:51:01;;;;;;;5.35;1.80;;;15.20;99.90;;;;;;3548104;40;20038;-68
2021/08/09 05:53:30;;;;;;;4.07;1.63;;;15.20;99.90;;;;;;3539797;40;20392;-70
2021/08/09 05:55:55;;;;;;;4.72;1.67;;;15.20;99.90;;;;;;3537532;40;20134;-69
2021/08/09 05:58:21;;;;;;;6.70;1.80;;;15.30;99.90;;;;;;3538389;40;20031;-69
2021/08/09 06:00:46;;;;;;;4.22;1.65;;;15.30;99.90;;;;;;3540300;40;20328;-69
2021/08/09 06:03:18;;;;;;;6.78;1.88;;;15.30;99.90;;;;;;3548217;40;20444;-67
2021/08/09 06:05:57;;;;;;;5.22;1.85;;;15.30;99.90;;;;;;3540184;40;20057;-69
2021/08/09 06:08:27;;;;;;;2.45;1.80;;;15.40;99.90;;;;;;3535794;40;20030;-68
2021/08/09 06:10:56;;;;;;;4.18;1.90;;;16.10;99.90;;;;;;3535708;40;20093;-69
2021/08/09 06:13:21;;;;;;;2.13;1.80;;;15.20;99.90;;;;;;3547841;40;20702;-69
2021/08/09 06:15:47;;;;;;;10.85;2.00;;;15.30;99.90;;;;;;3540996;40;20030;-69
2021/08/09 06:18:14;;;;;;;5.70;1.83;;;15.50;99.90;;;;;;3536290;40;20512;-68
2021/08/09 06:20:39;;;;;;;6.57;1.80;;;15.50;99.90;;;;;;3540525;40;20046;-69
2021/08/09 06:23:07;;;;;;;6.07;1.83;;;15.70;99.90;;;;;;3539963;40;20058;-69
2021/08/09 06:25:33;;;;;;;4.65;1.90;;;15.70;99.90;;;;;;3547914;40;20412;-68
2021/08/09 06:27:59;;;;;;;5.63;1.80;;;15.70;99.90;;;;;;3547114;40;20027;-69
2021/08/09 06:30:24;;;;;;;4.20;1.83;;;15.80;99.90;;;;;;3547143;40;20061;-68
2021/08/09 06:32:51;;;;;;;5.35;1.77;;;15.80;99.90;;;;;;3539778;40;20082;-68
2021/08/09 06:35:17;;;;;;;3.25;1.70;;;15.90;99.90;;;;;;3538352;40;20526;-69
2021/08/09 06:37:43;;;;;;;3.00;1.60;;;15.90;99.90;;;;;;3549391;40;20085;-68
2021/08/09 06:40:10;;;;;;;3.65;1.63;;;15.90;99.90;;;;;;3548771;40;20529;-68
2021/08/09 06:42:37;;;;;;;3.72;1.95;;;15.90;99.90;;;;;;3540459;40;20033;-69
2021/08/09 06:45:19;;;;;;;6.28;1.83;;;16.10;99.90;;;;;;3540217;40;20045;-69
2021/08/09 06:47:46;;;;;;;3.13;1.48;;;16.20;99.90;;;;;;3548821;40;20054;-69
2021/08/09 06:50:11;;;;;;;5.90;2.08;;;16.20;99.90;;;;;;3548363;40;20125;-69
2021/08/09 06:52:37;;;;;;;5.47;1.65;;;16.30;99.90;;;;;;3548208;40;20038;-69
2021/08/09 06:55:04;;;;;;;2.72;1.42;;;16.50;99.90;;;;;;3548502;40;20034;-69
2021/08/09 06:57:35;;;;;;;4.97;1.73;;;16.60;99.90;;;;;;3547898;40;20046;-69
2021/08/09 07:00:02;;;;;;;3.17;1.50;;;16.40;99.90;;;;;;3540006;40;20038;-69
2021/08/09 07:02:28;;;;;;;3.83;1.67;;;16.40;99.90;;;;;;3534694;40;20059;-69
2021/08/09 07:04:54;;;;;;;5.53;1.65;;;16.60;99.90;;;;;;3539273;40;20115;-69
2021/08/09 07:07:19;;;;;;;6.63;1.55;;;16.60;99.90;;;;;;3540023;40;20034;-69
2021/08/09 07:09:45;;;;;;;4.70;1.42;;;16.50;99.90;;;;;;3547778;40;20042;-69
2021/08/09 07:12:11;;;;;;;8.57;2.22;;;16.40;99.90;;;;;;3539970;40;20049;-69
2021/08/09 07:14:37;;;;;;;2.67;1.55;;;16.50;99.90;;;;;;3539898;40;20836;-69
2021/08/09 07:17:02;;;;;;;6.00;1.67;;;16.70;99.90;;;;;;3539669;40;20030;-68
2021/08/09 07:19:30;;;;;;;4.15;1.50;;;16.90;99.90;;;;;;3535902;40;20041;-67
2021/08/09 07:21:55;;;;;;;4.35;1.73;;;17.00;99.90;;;;;;3540608;40;20042;-67
2021/08/09 07:24:21;;;;;;;8.02;1.70;;;17.20;99.90;;;;;;3537037;40;20082;-68
2021/08/09 07:26:48;;;;;;;5.80;1.60;;;17.30;99.90;;;;;;3549432;40;20038;-67
2021/08/09 07:29:14;;;;;;;3.72;1.40;;;17.40;99.90;;;;;;3540942;40;20050;-66
2021/08/09 07:31:40;;;;;;;1.95;1.33;;;17.50;99.90;;;;;;3536350;40;20042;-66
2021/08/09 07:34:05;;;;;;;3.25;1.30;;;17.50;99.90;;;;;;3540963;40;20057;-67
2021/08/09 07:36:31;;;;;;;4.70;1.60;;;17.60;99.90;;;;;;3541493;40;20124;-70
2021/08/09 07:38:56;;;;;;;27.98;14.05;;;17.70;99.90;;;;;;3541667;40;20031;-70
2021/08/09 07:41:22;;;;;;;19.77;11.48;;;17.90;99.90;;;;;;3548737;40;20037;-70
2021/08/09 07:43:48;;;;;;;3.78;1.65;;;18.20;99.90;;;;;;3549539;40;20054;-70
2021/08/09 07:46:14;;;;;;;3.28;1.50;;;18.20;99.90;;;;;;3540711;40;20129;-70
2021/08/09 07:48:40;;;;;;;5.00;2.05;;;18.50;99.90;;;;;;3541318;40;20323;-70
2021/08/09 07:51:06;;;;;;;3.15;1.50;;;18.20;99.90;;;;;;3542617;40;20041;-70
2021/08/09 07:53:32;;;;;;;5.22;1.75;;;18.20;99.90;;;;;;3539317;40;20101;-70
2021/08/09 07:55:57;;;;;;;3.75;2.30;;;18.20;99.90;;;;;;3549022;40;20311;-69
2021/08/09 07:58:23;;;;;;;5.50;1.85;;;18.10;99.90;;;;;;3541619;40;20035;-68
2021/08/09 08:00:48;;;;;;;6.88;1.40;;;18.10;99.90;;;;;;3541015;40;20036;-69
2021/08/09 08:03:14;;;;;;;3.70;2.05;;;18.20;99.90;;;;;;3549798;40;20034;-69
2021/08/09 08:05:44;;;;;;;20.00;10.00;;;18.20;99.90;;;;;;3535552;40;20046;-69
2021/08/09 08:08:11;;;;;;;6.47;2.00;;;18.40;99.90;;;;;;3540890;40;20037;-69
2021/08/09 08:10:37;;;;;;;5.13;1.63;;;18.50;99.90;;;;;;3538176;40;20843;-67
2021/08/09 08:13:03;;;;;;;3.90;1.80;;;18.50;99.90;;;;;;3549346;40;20044;-66
2021/08/09 08:15:29;;;;;;;4.88;1.55;;;18.60;99.90;;;;;;3548867;40;20089;-67
2021/08/09 08:17:54;;;;;;;5.57;1.70;;;18.70;99.90;;;;;;3534634;40;20136;-66
2021/08/09 08:20:20;;;;;;;6.95;2.40;;;18.70;99.90;;;;;;3548581;40;20109;-67
2021/08/09 08:22:46;;;;;;;5.25;1.40;;;18.90;99.90;;;;;;3539571;40;20041;-66
2021/08/09 08:25:14;;;;;;;5.03;1.75;;;19.00;99.90;;;;;;3549010;40;20038;-66
2021/08/09 08:27:42;;;;;;;3.28;1.30;;;18.90;99.90;;;;;;3540001;40;20042;-66
2021/08/09 08:30:08;;;;;;;11.23;1.80;;;18.90;99.90;;;;;;3538295;40;20026;-66
2021/08/09 08:32:33;;;;;;;7.45;1.50;;;19.00;99.90;;;;;;3541613;40;20042;-68
2021/08/09 08:35:01;;;;;;;2.08;1.30;;;19.20;99.90;;;;;;3540258;40;20031;-71
2021/08/09 08:37:26;;;;;;;4.82;1.60;;;19.50;99.90;;;;;;3536976;40;20519;-70
2021/08/09 08:39:52;;;;;;;7.40;1.60;;;19.70;99.90;;;;;;3548428;40;20030;-70
2021/08/09 08:42:17;;;;;;;11.38;1.65;;;19.60;99.90;;;;;;3538448;40;20031;-69
2021/08/09 08:44:43;;;;;;;5.28;1.58;;;19.60;99.90;;;;;;3540382;40;20053;-70
2021/08/09 08:47:08;;;;;;;2.78;1.67;;;19.50;99.90;;;;;;3541385;40;20046;-71
2021/08/09 08:49:34;;;;;;;6.80;1.95;;;19.50;99.90;;;;;;3541419;40;20141;-69
2021/08/09 08:52:01;;;;;;;5.43;1.48;;;19.60;99.90;;;;;;3548644;40;20068;-70
2021/08/09 08:54:27;;;;;;;7.80;3.58;;;19.40;99.90;;;;;;3548960;40;20030;-70
2021/08/09 08:56:52;;;;;;;4.47;1.42;;;19.50;99.90;;;;;;3541597;40;20828;-69
2021/08/09 08:59:18;;;;;;;4.03;1.30;;;19.60;99.90;;;;;;3548437;40;20038;-70
2021/08/09 09:01:44;;;;;;;3.90;1.50;;;19.60;99.90;;;;;;3541814;40;20507;-69
2021/08/09 09:04:09;;;;;;;3.92;1.98;;;19.60;99.90;;;;;;3541548;40;20031;-69
2021/08/09 09:06:34;;;;;;;13.27;5.03;;;19.60;99.90;;;;;;3541935;40;20030;-69
2021/08/09 09:09:00;;;;;;;7.22;2.13;;;19.80;99.90;;;;;;3548911;40;20040;-69
2021/08/09 09:11:25;;;;;;;6.03;1.58;;;19.70;99.90;;;;;;3540920;40;20409;-69
2021/08/09 09:13:51;;;;;;;2.80;1.48;;;19.70;99.90;;;;;;3541796;40;20371;-70
2021/08/09 09:16:16;;;;;;;5.57;1.42;;;19.60;99.90;;;;;;3541193;40;20600;-69
2021/08/09 09:18:42;;;;;;;6.15;1.90;;;19.70;99.90;;;;;;3541592;40;20030;-71
2021/08/09 09:21:07;;;;;;;3.10;1.35;;;19.70;99.90;;;;;;3541725;40;20038;-70
2021/08/09 09:23:33;;;;;;;7.15;2.45;;;19.70;99.90;;;;;;3548111;40;20504;-69
2021/08/09 09:25:58;;;;;;;21.33;2.08;;;19.40;99.90;;;;;;3540247;40;20038;-69
2021/08/09 09:28:24;;;;;;;2.50;1.85;;;19.50;99.90;;;;;;3540966;40;20525;-69
2021/08/09 09:30:49;;;;;;;3.10;1.40;;;19.40;99.90;;;;;;3541137;40;20037;-70
2021/08/09 09:33:15;;;;;;;7.47;1.70;;;19.50;99.90;;;;;;3540733;40;20042;-69
2021/08/09 09:35:40;;;;;;;6.50;1.60;;;19.60;99.90;;;;;;3541110;40;20488;-69
2021/08/09 09:38:06;;;;;;;4.22;1.52;;;19.50;99.90;;;;;;3540579;40;20053;-69
2021/08/09 09:40:31;;;;;;;4.82;1.38;;;19.70;99.90;;;;;;3538922;40;20041;-69
2021/08/09 09:42:57;;;;;;;5.68;2.13;;;20.10;99.90;;;;;;3540646;40;20038;-69
2021/08/09 09:45:22;;;;;;;5.63;1.63;;;20.60;99.90;;;;;;3540688;40;20046;-70
2021/08/09 09:47:48;;;;;;;7.70;1.23;;;21.00;99.90;;;;;;3540291;40;20068;-70
2021/08/09 09:50:13;;;;;;;3.63;1.40;;;21.70;99.90;;;;;;3540815;40;20038;-69
2021/08/09 09:52:40;;;;;;;6.32;1.80;;;22.10;99.90;;;;;;3540341;40;20071;-70
2021/08/09 09:55:05;;;;;;;5.00;1.55;;;22.50;98.80;;;;;;3540510;40;20042;-69
2021/08/09 09:57:31;;;;;;;6.55;2.22;;;22.70;97.90;;;;;;3540531;40;20022;-69
2021/08/09 09:59:57;;;;;;;8.65;1.83;;;22.90;96.30;;;;;;3540859;40;20033;-69
2021/08/09 10:02:23;;;;;;;4.60;1.23;;;22.90;96.90;;;;;;3540804;40;20228;-69
2021/08/09 10:04:48;;;;;;;5.55;1.58;;;23.00;96.30;;;;;;3540567;40;20626;-69
2021/08/09 10:07:14;;;;;;;4.38;1.70;;;22.90;96.90;;;;;;3541247;40;20053;-68
2021/08/09 10:09:39;;;;;;;12.52;3.90;;;23.00;95.60;;;;;;3539818;40;20046;-70
2021/08/09 10:12:05;;;;;;;4.95;1.45;;;23.10;95.90;;;;;;3540793;40;20819;-69
2021/08/09 10:14:30;;;;;;;6.03;1.58;;;22.90;96.00;;;;;;3540785;40;20042;-69
2021/08/09 10:16:56;;;;;;;5.20;1.52;;;22.90;94.70;;;;;;3546748;40;20050;-72
2021/08/09 10:19:21;;;;;;;27.30;11.90;;;23.10;95.90;;;;;;3540790;40;20030;-69
2021/08/09 10:21:47;;;;;;;6.20;1.65;;;23.40;96.10;;;;;;3548187;40;20063;-70
2021/08/09 10:24:12;;;;;;;7.20;2.17;;;23.50;94.50;;;;;;3541159;40;20046;-70
2021/08/09 10:26:40;;;;;;;4.68;1.58;;;23.30;94.90;;;;;;3541516;40;20046;-69
2021/08/09 10:29:06;;;;;;;4.05;1.05;;;23.30;95.60;;;;;;3539350;40;20031;-72
2021/08/09 10:31:33;;;;;;;4.03;1.10;;;23.40;94.60;;;;;;3541139;40;20146;-70
2021/08/09 10:33:59;;;;;;;6.43;2.25;;;23.30;94.60;;;;;;3548235;40;20054;-71
2021/08/09 10:36:24;;;;;;;3.95;1.40;;;23.50;94.60;;;;;;3541426;40;20026;-70
2021/08/09 10:38:52;;;;;;;6.63;1.42;;;23.70;94.10;;;;;;3547988;40;20046;-69
2021/08/09 10:41:17;;;;;;;1010.67;351.02;;;23.70;95.60;;;;;;3540940;40;20033;-69
2021/08/09 10:43:43;;;;;;;6.60;1.30;;;23.70;93.00;;;;;;3541280;40;20038;-70
2021/08/09 10:46:08;;;;;;;3.85;1.10;;;24.00;91.40;;;;;;3540833;40;20042;-69
2021/08/09 10:48:34;;;;;;;3.00;1.10;;;23.80;91.60;;;;;;3539593;40;20023;-69
2021/08/09 10:50:59;;;;;;;3.80;1.02;;;23.70;91.90;;;;;;3541021;40;20077;-70
2021/08/09 10:53:25;;;;;;;3.08;1.48;;;23.90;91.60;;;;;;3539921;40;20046;-70
2021/08/09 10:55:50;;;;;;;8.15;1.40;;;24.60;90.20;;;;;;3540373;40;20550;-71
2021/08/09 10:58:16;;;;;;;7.20;1.60;;;24.60;91.60;;;;;;3540790;40;20343;-72
2021/08/09 11:00:41;;;;;;;4.85;2.35;;;25.50;90.60;;;;;;3541631;40;20169;-69
2021/08/09 11:03:07;;;;;;;7.03;1.20;;;24.90;91.90;;;;;;3542611;40;20050;-69
2021/08/09 11:05:34;;;;;;;3.55;1.13;;;24.30;90.90;;;;;;3537386;40;20119;-71
2021/08/09 11:07:59;;;;;;;3.72;1.08;;;25.50;91.80;;;;;;3542287;40;20038;-70
2021/08/09 11:10:25;;;;;;;2.95;1.27;;;25.80;87.60;;;;;;3541066;40;20023;-70
2021/08/09 11:12:50;;;;;;;2.92;1.00;;;25.40;85.50;;;;;;3541128;40;20038;-69
2021/08/09 11:15:16;;;;;;;11.52;3.45;;;24.90;86.00;;;;;;3540468;40;20097;-70
2021/08/09 11:17:41;;;;;;;10.15;1.63;;;24.70;86.90;;;;;;3540614;40;20400;-71
2021/08/09 11:20:06;;;;;;;3.92;1.80;;;24.30;88.10;;;;;;3540388;40;20050;-70
2021/08/09 11:22:32;;;;;;;4.15;1.35;;;24.40;88.00;;;;;;3541350;40;20034;-71
2021/08/09 11:24:57;;;;;;;3.20;1.27;;;24.90;90.60;;;;;;3541647;40;20043;-69
2021/08/09 11:27:23;;;;;;;10.45;3.38;;;24.10;88.40;;;;;;3541228;40;20416;-73
2021/08/09 11:29:48;;;;;;;5.43;1.38;;;24.50;86.30;;;;;;3540899;40;20628;-71
2021/08/09 11:32:14;;;;;;;3.85;1.40;;;24.40;85.90;;;;;;3541915;40;20034;-72
2021/08/09 11:34:40;;;;;;;6.90;1.30;;;;;;;;;;3542350;40;20046;-69
2021/08/09 11:37:06;;;;;;;4.57;1.10;;;;;;;;;;3540996;40;20026;-71
2021/08/09 11:39:32;;;;;;;4.38;1.20;;;;;;;;;;3541279;40;20136;-73
2021/08/09 11:41:58;;;;;;;5.13;1.23;;;;;;;;;;3541875;40;20720;-74
2021/08/09 11:44:23;;;;;;;4.70;1.02;;;;;;;;;;3541966;40;20053;-74
2021/08/09 11:46:50;;;;;;;2.63;0.93;;;;;;;;;;3535108;40;20043;-74
2021/08/09 11:49:15;;;;;;;8.57;4.50;;;25.10;94.30;;;;;;3541992;40;20108;-74
2021/08/09 11:51:41;;;;;;;4.47;1.10;;;24.90;85.30;;;;;;3541956;40;20062;-72
2021/08/09 11:54:06;;;;;;;3.58;1.10;;;24.30;83.40;;;;;;3539753;40;20133;-72
2021/08/09 11:56:38;;;;;;;5.30;1.40;;;;;;;;;;3542339;40;20049;-73
2021/08/09 11:59:03;;;;;;;7.80;1.58;;;;;;;;;;3541863;40;20144;-73
2021/08/09 12:01:29;;;;;;;2.80;1.10;;;;;;;;;;3541653;40;20034;-74
2021/08/09 12:03:55;;;;;;;4.50;1.20;;;;;;;;;;3542177;40;20046;-74
2021/08/09 12:06:21;;;;;;;2.28;1.00;;;24.70;80.30;;;;;;3540500;40;20741;-74
2021/08/09 12:08:47;;;;;;;3.42;1.17;;;24.80;81.10;;;;;;3540571;40;20600;-74
2021/08/09 12:11:12;;;;;;;5.32;1.17;;;24.80;82.70;;;;;;3541694;40;20071;-75
2021/08/09 12:13:37;;;;;;;2.15;1.10;;;24.60;84.60;;;;;;3541630;40;20054;-71
2021/08/09 12:16:03;;;;;;;7.18;2.17;;;24.90;82.70;;;;;;3541568;40;20030;-71
2021/08/09 12:18:28;;;;;;;4.20;1.70;;;25.20;83.20;;;;;;3540443;40;20308;-69
2021/08/09 12:20:54;;;;;;;3.28;1.52;;;25.70;80.20;;;;;;3541837;40;20093;-71
2021/08/09 12:23:19;;;;;;;5.30;1.50;;;25.70;81.50;;;;;;3541208;40;20035;-71
2021/08/09 12:25:45;;;;;;;4.60;1.52;;;26.00;81.10;;;;;;3541950;40;20046;-69
2021/08/09 12:28:11;;;;;;;3.88;1.38;;;;;;;;;;3541646;40;20672;-71
2021/08/09 12:30:37;;;;;;;2.70;1.25;;;;;;;;;;3540797;40;20041;-73
2021/08/09 12:33:04;;;;;;;3.83;1.27;;;;;;;;;;3538768;40;20487;-71
2021/08/09 12:35:34;;;;;;;2.83;1.67;;;;;;;;;;3539693;40;20049;-71
2021/08/09 12:38:00;;;;;;;3.78;1.65;;;;;;;;;;3541347;40;20038;-70
2021/08/09 12:40:26;;;;;;;5.32;1.50;;;;;;;;;;3541162;40;20022;-71
2021/08/09 12:42:53;;;;;;;5.60;1.27;;;;;;;;;;3540873;40;20101;-70
2021/08/09 12:45:19;;;;;;;3.70;1.20;;;;;;;;;;3541556;40;20597;-72